• Join FlightAware (Why Join?)
  • Login
  • US Flag 
01:10AM EDT


 

Airport Tracker/Info


-or-


 

Live Flight TrackerFlight Track Log ✈ GJS3636 ✈ 28-Apr-2013 ✈ KSYR - KORD

Flight Track Log - Related Links

Times and Time Zones

All times are in EDT time to prevent confusion due to time zone crossing. See the GJS3636 flight status page for this flight to view local times or setup timezone preferences in your user account.

Time Position Orientation Groundspeed Altitude Reporting Facility
EDT Latitude Longitude Course Direction KTS MPH feet Rate Location/Type
05:34PM 43.1092 -76.0864 51° Northeast 143 165 1,300  Level Boston Center
05:35PM 43.1531 -76.0122 51° Northeast 243 280 4,000 1,980 Climbing Boston Center
05:36PM 43.2025 -76.0978 308° West 293 337 6,300 2,100 Climbing Boston Center
05:38PM 43.2042 -76.3533 271° West 302 348 11,500 2,100 Climbing Cleveland Center
05:39PM 43.2067 -76.4842 272° West 328 377 13,600 1,980 Climbing Cleveland Center
05:40PM 43.2300 -76.6167 284° West 350 403 15,500 1,680 Climbing Cleveland Center
05:41PM 43.2536 -76.7606 283° West 374 430 17,000 1,500 Climbing Cleveland Center
05:42PM 43.2794 -76.9100 283° West 395 455 18,500 1,560 Climbing Cleveland Center
05:43PM 43.3008 -77.0600 281° West 405 466 20,200 1,500 Climbing Cleveland Center
05:44PM 43.3097 -77.2194 274° West 415 478 21,600 1,620 Climbing Cleveland Center
05:45PM 43.3058 -77.3794 268° West 415 478 23,500 1,800 Climbing Cleveland Center
05:46PM 43.3036 -77.5308 269° West 420 483 25,300 1,620 Climbing Cleveland Center
05:47PM 43.2969 -77.6794 267° West 415 478 26,800 1,260 Climbing Cleveland Center
05:48PM 43.2944 -77.8336 269° West 410 472 27,900 960 Climbing Cleveland Center
05:49PM 43.2897 -77.9906 268° West 410 472 28,800 840 Climbing Cleveland Center
05:50PM 43.2828 -78.1508 267° West 410 472 29,600 780 Climbing Cleveland Center
05:51PM 43.2800 -78.3161 269° West 421 484 30,400 1,020 Climbing Cleveland Center
05:52PM 43.2747 -78.4789 268° West 427 491 31,700 1,080 Climbing Cleveland Center
05:53PM 43.2694 -78.6558 268° West 427 491 32,600 2,100 Climbing Cleveland Center
05:54PM 43.2658 -78.8214 268° West 427 491 36,000 1,500 Climbing Cleveland Center
05:56PM 43.2500 -78.9500 260° West 390 449 36,000  Level Toronto Center
05:57PM 43.2333 -79.1000 261° West 380 437 36,000  Level Toronto Center
05:58PM 43.2333 -79.2667 270° West 400 460 36,000  Level Toronto Center
05:59PM 43.2333 -79.4333 270° West 410 472 36,000  Level Toronto Center
06:00PM 43.2167 -79.5667 260° West 430 495 36,000  Level Toronto Center
06:01PM 43.2167 -79.7500 270° West 430 495 36,000  Level Toronto Center
06:02PM 43.2000 -79.9000 261° West 440 506 36,000  Level Toronto Center
06:03PM 43.2000 -80.0833 270° West 440 506 36,000  Level Toronto Center
06:04PM 43.1833 -80.2500 262° West 440 506 36,000  Level Toronto Center
06:05PM 43.1833 -80.4167 270° West 440 506 36,000  Level Toronto Center
06:06PM 43.1667 -80.6000 263° West 440 506 36,000  Level Toronto Center
06:07PM 43.1667 -80.7333 270° West 430 495 36,000  Level Toronto Center
06:08PM 43.1333 -80.9167 256° West 430 495 36,000  Level Toronto Center
06:09PM 43.1333 -81.0667 270° West 430 495 36,000  Level Toronto Center
06:10PM 43.1333 -81.2333 270° West 430 495 36,000  Level Toronto Center
06:11PM 43.1167 -81.4000 262° West 430 495 36,000  Level Toronto Center
06:12PM 43.1167 -81.5500 270° West 430 495 36,000  Level Toronto Center
06:13PM 43.1000 -81.7167 262° West 430 495 36,000  Level Toronto Center
06:14PM 43.1000 -81.8667 270° West 430 495 36,000  Level Toronto Center
06:15PM 43.0667 -82.0333 255° West 430 495 36,000  Level Toronto Center
06:16PM 43.0667 -82.2167 270° West 430 495 36,000  Level Toronto Center
06:17PM 43.0667 -82.3667 270° West 430 495 36,000  Level Toronto Center
06:18PM 43.0500 -82.5000 260° West 430 495 36,000  Level Toronto Center
06:19PM 43.0333 -82.6833 263° West 430 495 36,000  Level Toronto Center
06:19PM 43.0394 -82.7761 275° West 432 497 36,000  Level Cleveland Center
06:20PM 43.0258 -82.9403 264° West 432 497 36,000  Level Cleveland Center
06:21PM 43.0161 -83.1047 265° West 437 503 36,000 -300 Level Cleveland Center
06:22PM 43.0019 -83.2689 263° West 437 503 35,400 -840 Descending Cleveland Center
06:23PM 42.9897 -83.4358 264° West 444 511 34,400 -780 Descending Cleveland Center
06:24PM 42.9769 -83.6139 264° West 455 524 33,900 -780 Descending Cleveland Center
06:25PM 42.9639 -83.7864 264° West 462 532 32,900 -960 Descending Cleveland Center
06:26PM 42.9444 -83.9586 261° West 467 537 32,000 -480 Descending Cleveland Center
06:27PM 42.9286 -84.1364 263° West 467 537 32,000  Level Cleveland Center
06:28PM 42.9108 -84.3056 262° West 467 537 32,000  Level Cleveland Center
06:29PM 42.9006 -84.4139 263° West 466 536 32,000  Level Chicago Center
06:30PM 42.8833 -84.5925 263° West 474 545 32,000  Level Chicago Center
06:31PM 42.8642 -84.7692 262° West 473 544 32,000  Level Chicago Center
06:32PM 42.8472 -84.9378 262° West 455 524 32,000  Level Chicago Center
06:33PM 42.8297 -85.1022 262° West 442 509 32,000 -60 Level Chicago Center
06:34PM 42.8106 -85.2717 261° West 450 518 31,900 -960 Descending Chicago Center
06:35PM 42.7919 -85.4483 262° West 466 536 30,000 -2,160 Descending Chicago Center
06:36PM 42.7583 -85.6553 258° West 465 535 27,500 -2,280 Descending Chicago Center
06:37PM 42.7281 -85.8242 256° West 459 528 25,400 -2,100 Descending Chicago Center
06:38PM 42.6972 -85.9836 255° West 442 509 23,200 -2,100 Descending Chicago Center
06:39PM 42.6706 -86.1361 257° West 421 484 21,100 -1,560 Descending Chicago Center
06:40PM 42.6425 -86.2847 256° West 409 471 20,000 -960 Descending Chicago Center
06:41PM 42.6147 -86.4286 255° West 396 456 19,200 -1,500 Descending Chicago Center
06:42PM 42.5878 -86.5736 256° West 397 457 17,000 -2,280 Descending Chicago Center
06:43PM 42.5575 -86.7414 256° West 383 441 14,600 -2,160 Descending Chicago Center
06:44PM 42.5228 -86.8700 250° West 365 420 12,600 -1,980 Descending Chicago Center
06:45PM 42.4883 -86.9953 250° West 357 411 10,600 -1,320 Descending Chicago Center
06:46PM 42.4558 -87.1056 248° West 322 371 9,900 -780 Descending Chicago Center
06:47PM 42.4283 -87.2047 249° West 287 330 9,000 -600 Descending Chicago Center
06:48PM 42.3919 -87.2975 242° Southwest 283 326 8,700 -840 Descending Chicago Center
06:49PM 42.3494 -87.4019 241° Southwest 283 326 7,300 -840 Descending Chicago Center
06:51PM 42.3136 -87.4961 243° Southwest 283 326 7,000 -180 Descending Chicago Center
06:52PM 42.2792 -87.5803 241° Southwest 263 303 7,000 -120 Level Chicago Center
06:53PM 42.2203 -87.6514 222° Southwest 240 276 6,800 -900 Descending Chicago Center
06:54PM 42.1692 -87.7081 219° Southwest 240 276 5,200 -1,440 Descending Chicago Center
06:55PM 42.1222 -87.7589 219° Southwest 226 260 3,900 -1,140 Descending Chicago Center
06:56PM 42.0814 -87.8050 220° Southwest 209 241 2,900 -1,020 Descending Chicago Center